sensor_id;sensor_type;location;lat;lon;timestamp;temperature;humidity
52919;DHT22;38793;52.690;6.812;2023-05-23T00:01:05;15.60;99.90
52919;DHT22;38793;52.690;6.812;2023-05-23T00:03:33;15.60;99.90
52919;DHT22;38793;52.690;6.812;2023-05-23T00:06:00;15.60;99.90
52919;DHT22;38793;52.690;6.812;2023-05-23T00:08:25;15.60;99.90
52919;DHT22;38793;52.690;6.812;2023-05-23T00:10:51;15.60;99.90
52919;DHT22;38793;52.690;6.812;2023-05-23T00:13:17;15.50;99.90
52919;DHT22;38793;52.690;6.812;2023-05-23T00:15:43;15.50;99.90
52919;DHT22;38793;52.690;6.812;2023-05-23T00:18:09;15.50;99.90
52919;DHT22;38793;52.690;6.812;2023-05-23T00:20:39;15.40;99.90
52919;DHT22;38793;52.690;6.812;2023-05-23T00:23:07;15.40;99.90
52919;DHT22;38793;52.690;6.812;2023-05-23T00:25:33;15.40;99.90
52919;DHT22;38793;52.690;6.812;2023-05-23T00:27:59;15.40;99.90
52919;DHT22;38793;52.690;6.812;2023-05-23T00:30:34;15.40;99.90
52919;DHT22;38793;52.690;6.812;2023-05-23T00:33:00;15.40;99.90
52919;DHT22;38793;52.690;6.812;2023-05-23T00:35:26;15.30;99.90
52919;DHT22;38793;52.690;6.812;2023-05-23T00:37:52;15.30;99.90
52919;DHT22;38793;52.690;6.812;2023-05-23T00:40:18;15.30;99.90
52919;DHT22;38793;52.690;6.812;2023-05-23T00:42:44;15.30;99.90
52919;DHT22;38793;52.690;6.812;2023-05-23T00:45:10;15.30;99.90
52919;DHT22;38793;52.690;6.812;2023-05-23T00:47:40;15.30;99.90
52919;DHT22;38793;52.690;6.812;2023-05-23T00:50:07;15.20;99.90
52919;DHT22;38793;52.690;6.812;2023-05-23T00:52:34;15.20;99.90
52919;DHT22;38793;52.690;6.812;2023-05-23T00:55:00;15.20;99.90
52919;DHT22;38793;52.690;6.812;2023-05-23T00:57:26;15.20;99.90
52919;DHT22;38793;52.690;6.812;2023-05-23T00:59:52;15.10;99.90
52919;DHT22;38793;52.690;6.812;2023-05-23T01:02:17;15.10;99.90
52919;DHT22;38793;52.690;6.812;2023-05-23T01:04:47;15.10;99.90
52919;DHT22;38793;52.690;6.812;2023-05-23T01:07:19;15.10;99.90
52919;DHT22;38793;52.690;6.812;2023-05-23T01:09:44;15.10;99.90
52919;DHT22;38793;52.690;6.812;2023-05-23T01:12:34;15.00;99.90
52919;DHT22;38793;52.690;6.812;2023-05-23T01:15:10;15.00;99.90
52919;DHT22;38793;52.690;6.812;2023-05-23T01:17:50;15.00;99.90
52919;DHT22;38793;52.690;6.812;2023-05-23T01:20:21;15.00;99.90
52919;DHT22;38793;52.690;6.812;2023-05-23T01:28:31;14.90;99.90
52919;DHT22;38793;52.690;6.812;2023-05-23T01:31:00;14.90;99.90
52919;DHT22;38793;52.690;6.812;2023-05-23T01:33:27;14.90;99.90
52919;DHT22;38793;52.690;6.812;2023-05-23T01:35:54;14.90;99.90
52919;DHT22;38793;52.690;6.812;2023-05-23T01:38:21;14.90;99.90
52919;DHT22;38793;52.690;6.812;2023-05-23T01:40:46;14.90;99.90
52919;DHT22;38793;52.690;6.812;2023-05-23T01:43:12;14.90;99.90
52919;DHT22;38793;52.690;6.812;2023-05-23T01:45:38;14.80;99.90
52919;DHT22;38793;52.690;6.812;2023-05-23T01:48:04;14.80;99.90
52919;DHT22;38793;52.690;6.812;2023-05-23T01:50:31;14.80;99.90
52919;DHT22;38793;52.690;6.812;2023-05-23T01:52:57;14.80;99.90
52919;DHT22;38793;52.690;6.812;2023-05-23T01:55:24;14.80;99.90
52919;DHT22;38793;52.690;6.812;2023-05-23T01:57:51;14.80;99.90
52919;DHT22;38793;52.690;6.812;2023-05-23T02:00:18;14.80;99.90
52919;DHT22;38793;52.690;6.812;2023-05-23T02:02:44;14.80;99.90
52919;DHT22;38793;52.690;6.812;2023-05-23T02:05:10;14.80;99.90
52919;DHT22;38793;52.690;6.812;2023-05-23T02:07:36;14.80;99.90
52919;DHT22;38793;52.690;6.812;2023-05-23T02:10:02;14.70;99.90
52919;DHT22;38793;52.690;6.812;2023-05-23T02:12:28;14.70;99.90
52919;DHT22;38793;52.690;6.812;2023-05-23T02:14:54;14.70;99.90
52919;DHT22;38793;52.690;6.812;2023-05-23T02:17:20;14.70;99.90
52919;DHT22;38793;52.690;6.812;2023-05-23T02:19:47;14.70;99.90
52919;DHT22;38793;52.690;6.812;2023-05-23T02:22:13;14.70;99.90
52919;DHT22;38793;52.690;6.812;2023-05-23T02:24:39;14.70;99.90
52919;DHT22;38793;52.690;6.812;2023-05-23T02:27:05;14.60;99.90
52919;DHT22;38793;52.690;6.812;2023-05-23T02:29:30;14.60;99.90
52919;DHT22;38793;52.690;6.812;2023-05-23T02:31:56;14.60;99.90
52919;DHT22;38793;52.690;6.812;2023-05-23T02:34:21;14.60;99.90
52919;DHT22;38793;52.690;6.812;2023-05-23T02:36:47;14.50;99.90
52919;DHT22;38793;52.690;6.812;2023-05-23T02:39:12;14.50;99.90
52919;DHT22;38793;52.690;6.812;2023-05-23T02:41:38;14.50;99.90
52919;DHT22;38793;52.690;6.812;2023-05-23T02:44:04;14.50;99.90
52919;DHT22;38793;52.690;6.812;2023-05-23T02:46:30;14.50;99.90
52919;DHT22;38793;52.690;6.812;2023-05-23T02:48:55;14.50;99.90
52919;DHT22;38793;52.690;6.812;2023-05-23T02:51:21;14.50;99.90
52919;DHT22;38793;52.690;6.812;2023-05-23T02:53:46;14.40;99.90
52919;DHT22;38793;52.690;6.812;2023-05-23T02:56:12;14.40;99.90
52919;DHT22;38793;52.690;6.812;2023-05-23T02:58:38;14.40;99.90
52919;DHT22;38793;52.690;6.812;2023-05-23T03:01:04;14.40;99.90
52919;DHT22;38793;52.690;6.812;2023-05-23T03:03:30;14.30;99.90
52919;DHT22;38793;52.690;6.812;2023-05-23T03:05:56;14.30;99.90
52919;DHT22;38793;52.690;6.812;2023-05-23T03:08:23;14.30;99.90
52919;DHT22;38793;52.690;6.812;2023-05-23T03:10:49;14.30;99.90
52919;DHT22;38793;52.690;6.812;2023-05-23T03:13:14;14.20;99.90
52919;DHT22;38793;52.690;6.812;2023-05-23T03:15:40;14.20;99.90
52919;DHT22;38793;52.690;6.812;2023-05-23T03:18:06;14.20;99.90
52919;DHT22;38793;52.690;6.812;2023-05-23T03:20:31;14.10;99.90
52919;DHT22;38793;52.690;6.812;2023-05-23T03:22:57;14.10;99.90
52919;DHT22;38793;52.690;6.812;2023-05-23T03:25:23;14.10;99.90
52919;DHT22;38793;52.690;6.812;2023-05-23T03:27:48;14.10;99.90
52919;DHT22;38793;52.690;6.812;2023-05-23T03:30:14;14.10;99.90
52919;DHT22;38793;52.690;6.812;2023-05-23T03:32:40;14.10;99.90
52919;DHT22;38793;52.690;6.812;2023-05-23T03:35:06;14.10;99.90
52919;DHT22;38793;52.690;6.812;2023-05-23T03:37:31;14.00;99.90
52919;DHT22;38793;52.690;6.812;2023-05-23T03:39:57;14.00;99.90
52919;DHT22;38793;52.690;6.812;2023-05-23T03:42:22;13.90;99.90
52919;DHT22;38793;52.690;6.812;2023-05-23T03:44:48;13.90;99.90
52919;DHT22;38793;52.690;6.812;2023-05-23T03:47:13;13.90;99.90
52919;DHT22;38793;52.690;6.812;2023-05-23T03:49:39;13.90;99.90
52919;DHT22;38793;52.690;6.812;2023-05-23T03:52:05;13.90;99.90
52919;DHT22;38793;52.690;6.812;2023-05-23T03:54:30;13.90;99.90
52919;DHT22;38793;52.690;6.812;2023-05-23T03:56:56;13.90;99.90
52919;DHT22;38793;52.690;6.812;2023-05-23T03:59:22;13.80;99.90
52919;DHT22;38793;52.690;6.812;2023-05-23T04:01:47;13.70;99.90
52919;DHT22;38793;52.690;6.812;2023-05-23T04:04:13;13.70;99.90
52919;DHT22;38793;52.690;6.812;2023-05-23T04:06:39;13.70;99.90
52919;DHT22;38793;52.690;6.812;2023-05-23T04:09:04;13.60;99.90
52919;DHT22;38793;52.690;6.812;2023-05-23T04:11:30;13.60;99.90
52919;DHT22;38793;52.690;6.812;2023-05-23T04:13:56;13.60;99.90
52919;DHT22;38793;52.690;6.812;2023-05-23T04:16:23;13.50;99.90
52919;DHT22;38793;52.690;6.812;2023-05-23T04:18:48;13.50;99.90
52919;DHT22;38793;52.690;6.812;2023-05-23T04:21:14;13.50;99.90
52919;DHT22;38793;52.690;6.812;2023-05-23T04:23:40;13.50;99.90
52919;DHT22;38793;52.690;6.812;2023-05-23T04:26:06;13.50;99.90
52919;DHT22;38793;52.690;6.812;2023-05-23T04:28:33;13.50;99.90
52919;DHT22;38793;52.690;6.812;2023-05-23T04:30:58;13.50;99.90
52919;DHT22;38793;52.690;6.812;2023-05-23T04:33:24;13.50;99.90
52919;DHT22;38793;52.690;6.812;2023-05-23T04:35:50;13.50;99.90
52919;DHT22;38793;52.690;6.812;2023-05-23T04:38:16;13.50;99.90
52919;DHT22;38793;52.690;6.812;2023-05-23T04:40:42;13.40;99.90
52919;DHT22;38793;52.690;6.812;2023-05-23T04:43:07;13.40;99.90
52919;DHT22;38793;52.690;6.812;2023-05-23T04:45:34;13.40;99.90
52919;DHT22;38793;52.690;6.812;2023-05-23T04:48:01;13.50;99.90
52919;DHT22;38793;52.690;6.812;2023-05-23T04:50:27;13.40;99.90
52919;DHT22;38793;52.690;6.812;2023-05-23T04:52:56;13.40;99.90
52919;DHT22;38793;52.690;6.812;2023-05-23T04:55:21;13.40;99.90
52919;DHT22;38793;52.690;6.812;2023-05-23T04:57:47;13.40;99.90
52919;DHT22;38793;52.690;6.812;2023-05-23T05:00:13;13.40;99.90
52919;DHT22;38793;52.690;6.812;2023-05-23T05:02:39;13.30;99.90
52919;DHT22;38793;52.690;6.812;2023-05-23T05:05:05;13.30;99.90
52919;DHT22;38793;52.690;6.812;2023-05-23T05:07:31;13.30;99.90
52919;DHT22;38793;52.690;6.812;2023-05-23T05:10:00;13.30;99.90
52919;DHT22;38793;52.690;6.812;2023-05-23T05:12:25;13.30;99.90
52919;DHT22;38793;52.690;6.812;2023-05-23T05:14:51;13.30;99.90
52919;DHT22;38793;52.690;6.812;2023-05-23T05:17:16;13.30;99.90
52919;DHT22;38793;52.690;6.812;2023-05-23T05:19:44;13.30;99.90
52919;DHT22;38793;52.690;6.812;2023-05-23T05:22:09;13.30;99.90
52919;DHT22;38793;52.690;6.812;2023-05-23T05:24:35;13.30;99.90
52919;DHT22;38793;52.690;6.812;2023-05-23T05:27:01;13.20;99.90
52919;DHT22;38793;52.690;6.812;2023-05-23T05:29:26;13.20;99.90
52919;DHT22;38793;52.690;6.812;2023-05-23T05:31:53;13.20;99.90
52919;DHT22;38793;52.690;6.812;2023-05-23T05:34:18;13.10;99.90
52919;DHT22;38793;52.690;6.812;2023-05-23T05:36:44;13.10;99.90
52919;DHT22;38793;52.690;6.812;2023-05-23T05:39:13;13.10;99.90
52919;DHT22;38793;52.690;6.812;2023-05-23T05:41:39;13.10;99.90
52919;DHT22;38793;52.690;6.812;2023-05-23T05:44:07;13.00;99.90
52919;DHT22;38793;52.690;6.812;2023-05-23T05:46:33;13.00;99.90
52919;DHT22;38793;52.690;6.812;2023-05-23T05:48:58;13.00;99.90
52919;DHT22;38793;52.690;6.812;2023-05-23T05:51:24;13.00;99.90
52919;DHT22;38793;52.690;6.812;2023-05-23T05:53:49;13.00;99.90
52919;DHT22;38793;52.690;6.812;2023-05-23T05:56:15;13.00;99.90
52919;DHT22;38793;52.690;6.812;2023-05-23T05:58:41;13.00;99.90
52919;DHT22;38793;52.690;6.812;2023-05-23T06:01:06;13.00;99.90
52919;DHT22;38793;52.690;6.812;2023-05-23T06:03:32;12.90;99.90
52919;DHT22;38793;52.690;6.812;2023-05-23T06:05:58;12.80;99.90
52919;DHT22;38793;52.690;6.812;2023-05-23T06:08:24;12.90;99.90
52919;DHT22;38793;52.690;6.812;2023-05-23T06:10:50;12.80;99.90
52919;DHT22;38793;52.690;6.812;2023-05-23T06:13:16;12.80;99.90
52919;DHT22;38793;52.690;6.812;2023-05-23T06:15:42;12.80;99.90
52919;DHT22;38793;52.690;6.812;2023-05-23T06:18:08;12.80;99.90
52919;DHT22;38793;52.690;6.812;2023-05-23T06:20:33;12.70;99.90
52919;DHT22;38793;52.690;6.812;2023-05-23T06:22:59;12.70;99.90
52919;DHT22;38793;52.690;6.812;2023-05-23T06:25:26;12.70;99.90
52919;DHT22;38793;52.690;6.812;2023-05-23T06:27:52;12.70;99.90
52919;DHT22;38793;52.690;6.812;2023-05-23T06:30:17;12.70;99.90
52919;DHT22;38793;52.690;6.812;2023-05-23T06:32:43;12.60;99.90
52919;DHT22;38793;52.690;6.812;2023-05-23T06:35:08;12.60;99.90
52919;DHT22;38793;52.690;6.812;2023-05-23T06:37:34;12.50;99.90
52919;DHT22;38793;52.690;6.812;2023-05-23T06:40:00;12.50;99.90
52919;DHT22;38793;52.690;6.812;2023-05-23T06:42:26;12.50;99.90
52919;DHT22;38793;52.690;6.812;2023-05-23T06:44:51;12.40;99.90
52919;DHT22;38793;52.690;6.812;2023-05-23T06:47:17;12.50;99.90
52919;DHT22;38793;52.690;6.812;2023-05-23T06:49:42;12.50;99.90
52919;DHT22;38793;52.690;6.812;2023-05-23T06:52:08;12.50;99.90
52919;DHT22;38793;52.690;6.812;2023-05-23T06:54:34;12.50;99.90
52919;DHT22;38793;52.690;6.812;2023-05-23T06:56:59;12.60;99.90
52919;DHT22;38793;52.690;6.812;2023-05-23T06:59:25;12.60;99.90
52919;DHT22;38793;52.690;6.812;2023-05-23T07:01:50;12.60;99.90
52919;DHT22;38793;52.690;6.812;2023-05-23T07:04:16;12.60;99.90
52919;DHT22;38793;52.690;6.812;2023-05-23T07:06:41;12.60;99.90
52919;DHT22;38793;52.690;6.812;2023-05-23T07:09:07;12.60;99.90
52919;DHT22;38793;52.690;6.812;2023-05-23T07:11:33;12.60;99.90
52919;DHT22;38793;52.690;6.812;2023-05-23T07:13:59;12.60;99.90
52919;DHT22;38793;52.690;6.812;2023-05-23T07:16:25;12.60;99.90
52919;DHT22;38793;52.690;6.812;2023-05-23T07:18:51;12.60;99.90
52919;DHT22;38793;52.690;6.812;2023-05-23T07:21:16;12.60;99.90
52919;DHT22;38793;52.690;6.812;2023-05-23T07:23:42;12.60;99.90
52919;DHT22;38793;52.690;6.812;2023-05-23T07:26:07;12.70;99.90
52919;DHT22;38793;52.690;6.812;2023-05-23T07:28:34;12.70;99.90
52919;DHT22;38793;52.690;6.812;2023-05-23T07:31:00;12.80;99.90
52919;DHT22;38793;52.690;6.812;2023-05-23T07:33:25;12.80;99.90
52919;DHT22;38793;52.690;6.812;2023-05-23T07:35:51;12.80;99.90
52919;DHT22;38793;52.690;6.812;2023-05-23T07:38:16;12.80;99.90
52919;DHT22;38793;52.690;6.812;2023-05-23T07:40:42;12.80;99.90
52919;DHT22;38793;52.690;6.812;2023-05-23T07:43:07;12.90;99.90
52919;DHT22;38793;52.690;6.812;2023-05-23T07:45:33;12.90;99.90
52919;DHT22;38793;52.690;6.812;2023-05-23T07:47:59;13.00;99.90
52919;DHT22;38793;52.690;6.812;2023-05-23T07:50:24;13.00;99.90
52919;DHT22;38793;52.690;6.812;2023-05-23T07:52:52;13.00;99.90
52919;DHT22;38793;52.690;6.812;2023-05-23T07:55:17;13.00;99.90
52919;DHT22;38793;52.690;6.812;2023-05-23T07:57:43;13.00;99.90
52919;DHT22;38793;52.690;6.812;2023-05-23T08:00:09;13.00;99.90
52919;DHT22;38793;52.690;6.812;2023-05-23T08:02:36;13.10;99.90
52919;DHT22;38793;52.690;6.812;2023-05-23T08:05:02;13.20;99.90
52919;DHT22;38793;52.690;6.812;2023-05-23T08:07:28;13.30;99.90
52919;DHT22;38793;52.690;6.812;2023-05-23T08:09:53;13.30;99.90
52919;DHT22;38793;52.690;6.812;2023-05-23T08:12:19;13.40;99.90
52919;DHT22;38793;52.690;6.812;2023-05-23T08:14:45;13.40;99.90
52919;DHT22;38793;52.690;6.812;2023-05-23T08:17:11;13.40;99.90
52919;DHT22;38793;52.690;6.812;2023-05-23T08:19:37;13.40;99.90
52919;DHT22;38793;52.690;6.812;2023-05-23T08:22:03;13.40;99.90
52919;DHT22;38793;52.690;6.812;2023-05-23T08:24:29;13.40;99.90
52919;DHT22;38793;52.690;6.812;2023-05-23T08:26:55;13.30;99.90
52919;DHT22;38793;52.690;6.812;2023-05-23T08:29:20;13.30;99.90
52919;DHT22;38793;52.690;6.812;2023-05-23T08:31:46;13.40;99.90
52919;DHT22;38793;52.690;6.812;2023-05-23T08:34:12;13.40;99.90
52919;DHT22;38793;52.690;6.812;2023-05-23T08:36:38;13.40;99.90
52919;DHT22;38793;52.690;6.812;2023-05-23T08:39:04;13.40;99.90
52919;DHT22;38793;52.690;6.812;2023-05-23T08:41:30;13.50;99.90
52919;DHT22;38793;52.690;6.812;2023-05-23T08:43:56;13.40;99.90
52919;DHT22;38793;52.690;6.812;2023-05-23T08:46:23;13.40;99.90
52919;DHT22;38793;52.690;6.812;2023-05-23T08:48:52;13.40;99.90
52919;DHT22;38793;52.690;6.812;2023-05-23T08:51:21;13.50;99.90
52919;DHT22;38793;52.690;6.812;2023-05-23T08:53:47;13.50;99.90
52919;DHT22;38793;52.690;6.812;2023-05-23T08:56:14;13.60;99.90
52919;DHT22;38793;52.690;6.812;2023-05-23T08:58:41;13.70;99.90
52919;DHT22;38793;52.690;6.812;2023-05-23T09:01:10;13.70;99.90
52919;DHT22;38793;52.690;6.812;2023-05-23T09:03:36;13.80;99.90
52919;DHT22;38793;52.690;6.812;2023-05-23T09:06:02;13.90;99.90
52919;DHT22;38793;52.690;6.812;2023-05-23T09:08:28;14.00;99.90
52919;DHT22;38793;52.690;6.812;2023-05-23T09:10:54;14.00;99.90
52919;DHT22;38793;52.690;6.812;2023-05-23T09:13:20;14.10;99.90
52919;DHT22;38793;52.690;6.812;2023-05-23T09:16:04;14.10;99.90
52919;DHT22;38793;52.690;6.812;2023-05-23T09:18:34;14.10;99.90
52919;DHT22;38793;52.690;6.812;2023-05-23T09:21:01;14.20;99.90
52919;DHT22;38793;52.690;6.812;2023-05-23T09:23:37;14.40;99.90
52919;DHT22;38793;52.690;6.812;2023-05-23T09:26:08;14.70;99.90
52919;DHT22;38793;52.690;6.812;2023-05-23T09:28:34;14.90;99.90
52919;DHT22;38793;52.690;6.812;2023-05-23T09:31:01;15.30;99.90
52919;DHT22;38793;52.690;6.812;2023-05-23T09:33:44;15.50;99.90
52919;DHT22;38793;52.690;6.812;2023-05-23T09:36:11;15.70;99.90
52919;DHT22;38793;52.690;6.812;2023-05-23T09:38:38;15.80;99.90
52919;DHT22;38793;52.690;6.812;2023-05-23T09:41:04;15.90;99.90
52919;DHT22;38793;52.690;6.812;2023-05-23T09:43:30;15.90;99.90
52919;DHT22;38793;52.690;6.812;2023-05-23T09:46:03;15.90;99.90
52919;DHT22;38793;52.690;6.812;2023-05-23T09:48:31;15.80;99.90
52919;DHT22;38793;52.690;6.812;2023-05-23T09:50:57;15.70;99.90
52919;DHT22;38793;52.690;6.812;2023-05-23T09:53:22;15.80;99.90
52919;DHT22;38793;52.690;6.812;2023-05-23T09:55:50;15.80;99.90
52919;DHT22;38793;52.690;6.812;2023-05-23T09:58:19;15.70;99.90
52919;DHT22;38793;52.690;6.812;2023-05-23T10:00:46;15.70;99.90
52919;DHT22;38793;52.690;6.812;2023-05-23T10:03:15;15.80;99.90
52919;DHT22;38793;52.690;6.812;2023-05-23T10:05:49;15.80;99.90
52919;DHT22;38793;52.690;6.812;2023-05-23T10:13:25;16.10;99.90
52919;DHT22;38793;52.690;6.812;2023-05-23T10:16:05;16.10;99.90
52919;DHT22;38793;52.690;6.812;2023-05-23T10:18:38;16.10;99.90
52919;DHT22;38793;52.690;6.812;2023-05-23T10:21:18;16.10;99.90
52919;DHT22;38793;52.690;6.812;2023-05-23T10:23:49;16.10;99.90
52919;DHT22;38793;52.690;6.812;2023-05-23T10:26:15;16.00;99.90
52919;DHT22;38793;52.690;6.812;2023-05-23T10:28:42;16.00;99.90
52919;DHT22;38793;52.690;6.812;2023-05-23T10:31:09;16.00;99.90
52919;DHT22;38793;52.690;6.812;2023-05-23T10:33:43;16.00;99.90
52919;DHT22;38793;52.690;6.812;2023-05-23T10:36:28;16.00;99.30
52919;DHT22;38793;52.690;6.812;2023-05-23T10:39:03;16.00;99.40
52919;DHT22;38793;52.690;6.812;2023-05-23T10:41:38;15.90;99.50
52919;DHT22;38793;52.690;6.812;2023-05-23T10:44:24;15.90;99.30
52919;DHT22;38793;52.690;6.812;2023-05-23T10:46:53;16.00;99.50
52919;DHT22;38793;52.690;6.812;2023-05-23T10:49:20;16.00;99.80
52919;DHT22;38793;52.690;6.812;2023-05-23T10:51:49;16.00;99.40
52919;DHT22;38793;52.690;6.812;2023-05-23T10:54:18;16.10;99.50
52919;DHT22;38793;52.690;6.812;2023-05-23T10:56:45;16.20;99.30
52919;DHT22;38793;52.690;6.812;2023-05-23T10:59:19;16.30;98.80
52919;DHT22;38793;52.690;6.812;2023-05-23T11:01:47;16.40;98.50
52919;DHT22;38793;52.690;6.812;2023-05-23T11:04:14;16.50;98.60
52919;DHT22;38793;52.690;6.812;2023-05-23T11:06:43;16.70;98.80
52919;DHT22;38793;52.690;6.812;2023-05-23T11:09:16;16.70;98.20
52919;DHT22;38793;52.690;6.812;2023-05-23T11:15:17;16.70;97.50
52919;DHT22;38793;52.690;6.812;2023-05-23T11:17:17;16.60;97.50
52919;DHT22;38793;52.690;6.812;2023-05-23T11:19:58;16.70;97.40
52919;DHT22;38793;52.690;6.812;2023-05-23T11:22:31;16.80;97.30
52919;DHT22;38793;52.690;6.812;2023-05-23T11:24:57;16.90;97.10
52919;DHT22;38793;52.690;6.812;2023-05-23T11:27:45;16.90;97.30
52919;DHT22;38793;52.690;6.812;2023-05-23T11:30:14;16.80;96.80
52919;DHT22;38793;52.690;6.812;2023-05-23T11:32:41;16.70;96.40
52919;DHT22;38793;52.690;6.812;2023-05-23T11:35:10;16.70;96.80
52919;DHT22;38793;52.690;6.812;2023-05-23T11:37:38;16.60;96.90
52919;DHT22;38793;52.690;6.812;2023-05-23T11:40:27;16.60;96.90
52919;DHT22;38793;52.690;6.812;2023-05-23T11:42:54;16.60;96.80
52919;DHT22;38793;52.690;6.812;2023-05-23T11:45:20;16.70;96.80
52919;DHT22;38793;52.690;6.812;2023-05-23T11:47:46;16.60;96.00
52919;DHT22;38793;52.690;6.812;2023-05-23T11:50:11;16.60;96.60
52919;DHT22;38793;52.690;6.812;2023-05-23T11:52:37;16.60;96.30
52919;DHT22;38793;52.690;6.812;2023-05-23T11:55:03;16.50;96.40
52919;DHT22;38793;52.690;6.812;2023-05-23T11:57:29;16.50;96.80
52919;DHT22;38793;52.690;6.812;2023-05-23T11:59:55;16.60;96.60
52919;DHT22;38793;52.690;6.812;2023-05-23T12:02:20;16.80;96.60
52919;DHT22;38793;52.690;6.812;2023-05-23T12:04:49;16.90;96.50
52919;DHT22;38793;52.690;6.812;2023-05-23T12:07:18;16.90;96.40
52919;DHT22;38793;52.690;6.812;2023-05-23T12:09:45;16.90;96.40
52919;DHT22;38793;52.690;6.812;2023-05-23T12:12:11;16.80;96.30
52919;DHT22;38793;52.690;6.812;2023-05-23T12:14:37;16.80;95.90
52919;DHT22;38793;52.690;6.812;2023-05-23T12:17:11;16.80;96.40
52919;DHT22;38793;52.690;6.812;2023-05-23T12:19:38;16.80;96.00
52919;DHT22;38793;52.690;6.812;2023-05-23T12:22:07;16.80;95.70
52919;DHT22;38793;52.690;6.812;2023-05-23T12:24:33;16.80;95.50
52919;DHT22;38793;52.690;6.812;2023-05-23T12:27:01;16.70;95.10
52919;DHT22;38793;52.690;6.812;2023-05-23T12:29:28;16.80;95.30
52919;DHT22;38793;52.690;6.812;2023-05-23T12:31:55;16.80;95.00
52919;DHT22;38793;52.690;6.812;2023-05-23T12:34:22;16.80;95.10
52919;DHT22;38793;52.690;6.812;2023-05-23T12:36:47;16.80;94.90
52919;DHT22;38793;52.690;6.812;2023-05-23T12:39:14;16.80;94.90
52919;DHT22;38793;52.690;6.812;2023-05-23T12:41:44;16.70;95.00
52919;DHT22;38793;52.690;6.812;2023-05-23T12:44:10;16.80;95.30
52919;DHT22;38793;52.690;6.812;2023-05-23T12:46:39;16.80;95.30
52919;DHT22;38793;52.690;6.812;2023-05-23T12:49:05;16.70;94.90
52919;DHT22;38793;52.690;6.812;2023-05-23T12:51:30;16.70;94.70
52919;DHT22;38793;52.690;6.812;2023-05-23T12:53:56;16.70;94.50
52919;DHT22;38793;52.690;6.812;2023-05-23T12:56:22;16.60;94.80
52919;DHT22;38793;52.690;6.812;2023-05-23T12:58:48;16.60;94.50
52919;DHT22;38793;52.690;6.812;2023-05-23T13:01:13;16.70;94.50
52919;DHT22;38793;52.690;6.812;2023-05-23T13:03:39;16.80;95.00
52919;DHT22;38793;52.690;6.812;2023-05-23T13:06:05;16.90;94.50
52919;DHT22;38793;52.690;6.812;2023-05-23T13:08:31;17.00;94.60
52919;DHT22;38793;52.690;6.812;2023-05-23T13:10:57;16.90;94.40
52919;DHT22;38793;52.690;6.812;2023-05-23T13:13:23;16.90;94.70
52919;DHT22;38793;52.690;6.812;2023-05-23T13:15:49;16.90;94.90
52919;DHT22;38793;52.690;6.812;2023-05-23T13:18:15;17.00;94.30
52919;DHT22;38793;52.690;6.812;2023-05-23T13:20:41;17.00;94.20
52919;DHT22;38793;52.690;6.812;2023-05-23T13:23:06;17.00;94.10
52919;DHT22;38793;52.690;6.812;2023-05-23T13:25:33;17.00;94.00
52919;DHT22;38793;52.690;6.812;2023-05-23T13:27:59;17.00;93.70
52919;DHT22;38793;52.690;6.812;2023-05-23T13:30:26;17.00;93.90
52919;DHT22;38793;52.690;6.812;2023-05-23T13:32:53;17.00;93.80
52919;DHT22;38793;52.690;6.812;2023-05-23T13:35:19;17.10;93.90
52919;DHT22;38793;52.690;6.812;2023-05-23T13:37:44;17.20;93.80
52919;DHT22;38793;52.690;6.812;2023-05-23T13:40:17;17.30;93.80
52919;DHT22;38793;52.690;6.812;2023-05-23T13:42:43;17.30;93.80
52919;DHT22;38793;52.690;6.812;2023-05-23T13:45:09;17.40;93.80
52919;DHT22;38793;52.690;6.812;2023-05-23T13:47:37;17.40;93.40
52919;DHT22;38793;52.690;6.812;2023-05-23T13:50:04;17.40;92.70
52919;DHT22;38793;52.690;6.812;2023-05-23T13:52:29;17.40;92.70
52919;DHT22;38793;52.690;6.812;2023-05-23T13:54:55;17.30;92.40
52919;DHT22;38793;52.690;6.812;2023-05-23T13:57:21;17.30;92.20
52919;DHT22;38793;52.690;6.812;2023-05-23T13:59:46;17.10;92.30
52919;DHT22;38793;52.690;6.812;2023-05-23T14:02:12;17.00;92.30
52919;DHT22;38793;52.690;6.812;2023-05-23T14:04:38;17.00;93.00
52919;DHT22;38793;52.690;6.812;2023-05-23T14:07:03;17.10;92.90
52919;DHT22;38793;52.690;6.812;2023-05-23T14:09:29;17.30;93.30
52919;DHT22;38793;52.690;6.812;2023-05-23T14:11:55;17.40;92.90
52919;DHT22;38793;52.690;6.812;2023-05-23T14:14:20;17.50;93.10
52919;DHT22;38793;52.690;6.812;2023-05-23T14:16:46;17.50;92.20
52919;DHT22;38793;52.690;6.812;2023-05-23T14:19:11;17.50;91.50
52919;DHT22;38793;52.690;6.812;2023-05-23T14:21:37;17.50;91.70
52919;DHT22;38793;52.690;6.812;2023-05-23T14:24:03;17.50;91.60
52919;DHT22;38793;52.690;6.812;2023-05-23T14:26:29;17.50;91.80
52919;DHT22;38793;52.690;6.812;2023-05-23T14:28:54;17.50;91.70
52919;DHT22;38793;52.690;6.812;2023-05-23T14:31:20;17.40;91.50
52919;DHT22;38793;52.690;6.812;2023-05-23T14:33:47;17.30;91.30
52919;DHT22;38793;52.690;6.812;2023-05-23T14:36:14;17.10;91.00
52919;DHT22;38793;52.690;6.812;2023-05-23T14:38:40;17.00;91.10
52919;DHT22;38793;52.690;6.812;2023-05-23T14:41:10;16.90;91.10
52919;DHT22;38793;52.690;6.812;2023-05-23T14:43:35;16.80;91.30
52919;DHT22;38793;52.690;6.812;2023-05-23T14:46:01;16.90;91.20
52919;DHT22;38793;52.690;6.812;2023-05-23T14:48:27;16.90;91.50
52919;DHT22;38793;52.690;6.812;2023-05-23T14:50:52;17.00;91.70
52919;DHT22;38793;52.690;6.812;2023-05-23T14:53:18;17.10;91.20
52919;DHT22;38793;52.690;6.812;2023-05-23T14:55:46;17.10;91.00
52919;DHT22;38793;52.690;6.812;2023-05-23T14:58:12;17.20;90.80
52919;DHT22;38793;52.690;6.812;2023-05-23T15:00:37;17.20;90.60
52919;DHT22;38793;52.690;6.812;2023-05-23T15:03:05;17.20;91.10
52919;DHT22;38793;52.690;6.812;2023-05-23T15:05:31;17.30;91.30
52919;DHT22;38793;52.690;6.812;2023-05-23T15:07:57;17.40;91.20
52919;DHT22;38793;52.690;6.812;2023-05-23T15:10:23;17.50;90.90
52919;DHT22;38793;52.690;6.812;2023-05-23T15:12:48;17.50;90.60
52919;DHT22;38793;52.690;6.812;2023-05-23T15:15:14;17.50;90.70
52919;DHT22;38793;52.690;6.812;2023-05-23T15:17:46;17.50;90.80
52919;DHT22;38793;52.690;6.812;2023-05-23T15:20:12;17.50;89.90
52919;DHT22;38793;52.690;6.812;2023-05-23T15:22:38;17.40;89.40
52919;DHT22;38793;52.690;6.812;2023-05-23T15:25:05;17.40;90.10
52919;DHT22;38793;52.690;6.812;2023-05-23T15:27:31;17.40;89.50
52919;DHT22;38793;52.690;6.812;2023-05-23T15:29:56;17.40;88.60
52919;DHT22;38793;52.690;6.812;2023-05-23T15:32:22;17.30;88.90
52919;DHT22;38793;52.690;6.812;2023-05-23T15:34:48;17.20;88.70
52919;DHT22;38793;52.690;6.812;2023-05-23T15:37:14;17.10;89.40
52919;DHT22;38793;52.690;6.812;2023-05-23T15:39:40;17.10;89.20
52919;DHT22;38793;52.690;6.812;2023-05-23T15:42:05;16.90;88.20